Terminal Aerodrome Forecast
Issued by NWS

Home | Current Version | Previous Version | Text Only | Print | Product List | Glossary On
Versions: 1 2 3 4 5 6 7 8 9 10 11 12 13 14 15 16 17
838
FTUS46 KHNX 201120
TAFMER
TAF
KMER 201120Z 2012/2112 17015G25KT P6SM -RA SCT009 BKN050 OVC070
      TEMPO 2012/2016 3SM RA BR BKN009
     FM201600 17020G30KT P6SM -RA OVC050
     FM202000 17022G35KT P6SM VCSH BKN050=

USA.gov is the U.S. government's official web portal to all federal, state and local government web resources and services.